Time;durP1;ratioP1;P1;durP2;ratioP2;P2;SDS_P1;SDS_P2;PMS_P1;PMS_P2;Temp;Humidity;BMP_temperature;BMP_pressure;BME280_temperature;BME280_humidity;BME280_pressure;Samples;Min_cycle;Max_cycle;Signal;HPM_P1;HPM_P2
2022/10/10 00:01:54;;;;;;;;;;;;;;;14.12;44.90;101393.09;5407726;32;34408;-75
2022/10/10 00:04:56;;;;;;;;;;;;;;;14.35;44.84;101395.72;5425414;32;34758;-77
2022/10/10 00:07:58;;;;;;;;;;;;;;;14.33;44.40;101400.22;5409050;32;35367;-68
2022/10/10 00:11:00;;;;;;;;;;;;;;;14.19;44.55;101396.37;5410529;32;34902;-69
2022/10/10 00:14:01;;;;;;;;;;;;;;;15.12;42.92;101393.50;5409418;32;34450;-75
2022/10/10 00:17:03;;;;;;;;;;;;;;;14.20;45.19;101390.16;5407833;32;34368;-76
2022/10/10 00:20:05;;;;;;;;;;;;;;;13.75;46.84;101401.53;5426086;32;34826;-77
2022/10/10 00:23:07;;;;;;;;;;;;;;;14.45;43.80;101387.44;5408980;32;34278;-76
2022/10/10 00:26:09;;;;;;;;;;;;;;;14.42;44.40;101372.53;5410067;32;34189;-69
2022/10/10 00:29:19;;;;;;;;;;;;;;;15.30;42.46;101385.72;5404617;32;44467;-76
2022/10/10 00:32:20;;;;;;;;;;;;;;;14.98;42.74;101384.44;5422280;32;35492;-68
2022/10/10 00:35:22;;;;;;;;;;;;;;;13.63;46.33;101394.91;5408397;32;37377;-77
2022/10/10 00:38:24;;;;;;;;;;;;;;;14.62;44.67;101380.59;5408652;32;35954;-76
2022/10/10 00:41:26;;;;;;;;;;;;;;;14.39;45.50;101385.03;5425023;32;34626;-77
2022/10/10 00:44:28;;;;;;;;;;;;;;;14.68;45.18;101376.81;5397264;32;34710;-76
2022/10/10 00:47:29;;;;;;;;;;;;;;;13.38;48.24;101373.78;5413474;32;34910;-68
2022/10/10 00:50:32;;;;;;;;;;;;;;;13.38;48.52;101375.56;5409159;32;35064;-69
2022/10/10 00:53:36;;;;;;;;;;;;;;;13.54;48.50;101371.47;5408560;32;35385;-76
2022/10/10 00:57:05;;;;;;;;;;;;;;;14.06;47.79;101370.41;5411161;32;34958;-76
2022/10/10 01:00:07;;;;;;;;;;;;;;;14.31;46.74;101369.47;5406941;32;35001;-76
2022/10/10 01:03:09;;;;;;;;;;;;;;;13.58;48.67;101372.19;5410929;32;36108;-68
2022/10/10 01:06:11;;;;;;;;;;;;;;;14.02;48.06;101360.00;5405969;32;44507;-68
2022/10/10 01:09:13;;;;;;;;;;;;;;;14.55;46.85;101363.22;5424914;32;34862;-68
2022/10/10 01:12:20;;;;;;;;;;;;;;;14.54;46.78;101363.28;5408065;32;35521;-76
2022/10/10 01:15:25;;;;;;;;;;;;;;;13.50;49.13;101361.91;5407472;32;34826;-75
2022/10/10 01:18:29;;;;;;;;;;;;;;;13.39;49.90;101359.66;5425403;32;35138;-70
2022/10/10 01:21:35;;;;;;;;;;;;;;;13.97;48.45;101354.88;5393426;32;35544;-68
2022/10/10 01:24:50;;;;;;;;;;;;;;;13.38;48.70;101360.56;5410973;32;35506;-68
2022/10/10 01:27:53;;;;;;;;;;;;;;;13.89;47.32;101350.81;5392237;32;35311;-69
2022/10/10 01:30:55;;;;;;;;;;;;;;;13.52;48.65;101354.78;5399712;32;34600;-76
2022/10/10 01:34:03;;;;;;;;;;;;;;;13.94;48.24;101352.37;5403796;32;35379;-76
2022/10/10 01:37:04;;;;;;;;;;;;;;;14.07;47.21;101350.97;5392879;32;35195;-77
2022/10/10 01:40:06;;;;;;;;;;;;;;;13.14;50.02;101350.84;5426286;32;36291;-69
2022/10/10 01:43:08;;;;;;;;;;;;;;;14.21;47.49;101347.78;5408578;32;35081;-75
2022/10/10 01:46:11;;;;;;;;;;;;;;;14.16;47.37;101341.81;5385531;32;43440;-75
2022/10/10 01:49:13;;;;;;;;;;;;;;;13.18;50.04;101347.16;5393086;32;35784;-70
2022/10/10 01:52:33;;;;;;;;;;;;;;;13.27;50.32;101341.63;5411967;32;34920;-76
2022/10/10 01:55:47;;;;;;;;;;;;;;;13.39;49.38;101345.59;5423743;32;35285;-75
2022/10/10 01:58:52;;;;;;;;;;;;;;;14.16;47.31;101333.03;5405308;32;37448;-77
2022/10/10 02:01:56;;;;;;;;;;;;;;;13.97;48.04;101335.50;5424324;32;34860;-77
2022/10/10 02:04:59;;;;;;;;;;;;;;;13.11;49.97;101340.38;5392376;32;34965;-68
2022/10/10 02:08:09;;;;;;;;;;;;;;;12.84;51.19;101352.75;5400303;32;35468;-69
2022/10/10 02:11:11;;;;;;;;;;;;;;;13.54;49.64;101345.91;5404025;32;45306;-68
2022/10/10 02:14:18;;;;;;;;;;;;;;;13.88;48.04;101336.75;5392377;32;34787;-69
2022/10/10 02:17:20;;;;;;;;;;;;;;;13.09;50.67;101347.50;5408992;32;35093;-69
2022/10/10 02:20:23;;;;;;;;;;;;;;;14.09;47.62;101337.69;5407950;32;34914;-68
2022/10/10 02:23:25;;;;;;;;;;;;;;;13.77;48.70;101331.84;5409034;32;34728;-68
2022/10/10 02:26:27;;;;;;;;;;;;;;;14.02;48.20;101342.34;5393282;32;35318;-77
2022/10/10 02:29:30;;;;;;;;;;;;;;;14.20;47.81;101338.16;5391611;32;35505;-70
2022/10/10 02:32:35;;;;;;;;;;;;;;;14.29;46.96;101342.19;5407354;32;34777;-68
2022/10/10 02:35:38;;;;;;;;;;;;;;;13.81;48.62;101346.69;5406385;32;35678;-77
2022/10/10 02:38:40;;;;;;;;;;;;;;;13.52;49.66;101346.88;5422692;32;46514;-69
2022/10/10 02:41:42;;;;;;;;;;;;;;;12.97;50.99;101351.41;5406220;32;34157;-77
2022/10/10 02:44:44;;;;;;;;;;;;;;;13.08;51.17;101351.06;5395942;32;34256;-76
2022/10/10 02:47:46;;;;;;;;;;;;;;;13.55;50.67;101352.06;5399068;32;34958;-76
2022/10/10 02:50:48;;;;;;;;;;;;;;;13.98;49.01;101340.78;5391819;32;35562;-76
2022/10/10 02:53:49;;;;;;;;;;;;;;;13.87;47.51;101340.31;5410055;32;34752;-77
2022/10/10 02:56:51;;;;;;;;;;;;;;;13.61;48.90;101346.56;5405338;32;35107;-69
2022/10/10 02:59:53;;;;;;;;;;;;;;;14.08;48.07;101352.69;5425139;32;34703;-69
2022/10/10 03:02:55;;;;;;;;;;;;;;;14.09;47.75;101343.84;5406965;32;34724;-69
2022/10/10 03:05:57;;;;;;;;;;;;;;;12.81;50.96;101353.69;5421270;32;34468;-76
2022/10/10 03:08:59;;;;;;;;;;;;;;;12.99;51.04;101339.88;5408593;32;35174;-76
2022/10/10 03:12:00;;;;;;;;;;;;;;;13.74;49.57;101344.31;5404585;32;34818;-75
2022/10/10 03:15:03;;;;;;;;;;;;;;;14.03;48.30;101337.94;5423634;32;35350;-75
2022/10/10 03:18:11;;;;;;;;;;;;;;;13.86;49.20;101335.09;5392639;32;43422;-76
2022/10/10 03:21:13;;;;;;;;;;;;;;;12.95;51.50;101337.41;5422767;32;34368;-77
2022/10/10 03:24:15;;;;;;;;;;;;;;;12.72;52.77;101339.03;5404237;32;35471;-77
2022/10/10 03:27:17;;;;;;;;;;;;;;;13.54;51.03;101327.44;5418013;32;34835;-68
2022/10/10 03:30:19;;;;;;;;;;;;;;;13.24;51.33;101334.66;5408369;32;35407;-68
2022/10/10 03:33:21;;;;;;;;;;;;;;;13.10;51.71;101331.59;5392495;32;33618;-76
2022/10/10 03:36:23;;;;;;;;;;;;;;;13.27;51.80;101336.34;5424829;32;35686;-69
2022/10/10 03:39:24;;;;;;;;;;;;;;;13.69;50.72;101336.56;5408822;32;35010;-68
2022/10/10 03:42:26;;;;;;;;;;;;;;;13.93;50.06;101328.66;5423483;32;35181;-68
2022/10/10 03:45:28;;;;;;;;;;;;;;;13.92;50.08;101337.50;5388513;32;34938;-77
2022/10/10 03:48:30;;;;;;;;;;;;;;;13.19;51.85;101346.25;5405024;32;35506;-67
2022/10/10 03:51:32;;;;;;;;;;;;;;;13.44;51.16;101333.94;5411377;32;37490;-69
2022/10/10 03:54:34;;;;;;;;;;;;;;;12.03;55.01;101342.97;5408464;32;34669;-76
2022/10/10 03:57:36;;;;;;;;;;;;;;;12.62;53.94;101334.09;5425302;32;35615;-76
2022/10/10 04:00:38;;;;;;;;;;;;;;;12.53;53.50;101337.91;5407003;32;35154;-68
2022/10/10 04:03:40;;;;;;;;;;;;;;;12.51;53.98;101336.25;5410283;32;43588;-69
2022/10/10 04:06:42;;;;;;;;;;;;;;;12.18;55.08;101345.16;5393725;32;34909;-68
2022/10/10 04:09:43;;;;;;;;;;;;;;;13.38;51.96;101325.37;5421878;32;34861;-77
2022/10/10 04:12:45;;;;;;;;;;;;;;;13.44;51.43;101339.22;5397938;32;35081;-68
2022/10/10 04:15:50;;;;;;;;;;;;;;;13.39;51.84;101330.59;5407220;32;35127;-68
2022/10/10 04:18:52;;;;;;;;;;;;;;;13.20;52.59;101329.50;5426540;32;34413;-68
2022/10/10 04:21:54;;;;;;;;;;;;;;;13.73;51.16;101322.31;5407744;32;35538;-68
2022/10/10 04:24:56;;;;;;;;;;;;;;;13.54;51.72;101332.72;5425084;32;35035;-68
2022/10/10 04:27:58;;;;;;;;;;;;;;;13.03;52.83;101330.09;5391931;32;35452;-69
2022/10/10 04:31:02;;;;;;;;;;;;;;;12.11;55.93;101340.12;5415526;32;34484;-77
2022/10/10 04:34:04;;;;;;;;;;;;;;;11.97;56.62;101329.97;5416194;32;34297;-76
2022/10/10 04:37:06;;;;;;;;;;;;;;;12.10;56.34;101339.22;5408963;32;35281;-70
2022/10/10 04:40:08;;;;;;;;;;;;;;;11.74;58.43;101335.91;5425855;32;35762;-75
2022/10/10 04:43:10;;;;;;;;;;;;;;;12.03;57.78;101337.69;5392913;32;37714;-76
2022/10/10 04:46:12;;;;;;;;;;;;;;;12.80;55.29;101333.50;5400524;32;34769;-69
2022/10/10 04:49:14;;;;;;;;;;;;;;;11.66;58.60;101332.63;5394843;32;34392;-76
2022/10/10 04:52:16;;;;;;;;;;;;;;;11.99;57.99;101330.81;5401473;32;35065;-70
2022/10/10 04:55:18;;;;;;;;;;;;;;;12.29;57.25;101333.41;5416447;32;34441;-67
2022/10/10 04:58:20;;;;;;;;;;;;;;;12.61;56.23;101335.00;5393269;32;35382;-68
2022/10/10 05:01:22;;;;;;;;;;;;;;;12.39;57.07;101334.84;5424665;32;35015;-77
2022/10/10 05:04:25;;;;;;;;;;;;;;;12.58;56.10;101338.63;5408079;32;35031;-77
2022/10/10 05:07:27;;;;;;;;;;;;;;;13.01;54.99;101340.72;5409975;32;34373;-76
2022/10/10 05:10:29;;;;;;;;;;;;;;;11.98;57.33;101341.38;5409165;32;34496;-76
2022/10/10 05:13:31;;;;;;;;;;;;;;;12.28;57.12;101337.81;5413987;32;34995;-75
2022/10/10 05:16:33;;;;;;;;;;;;;;;12.12;57.29;101339.22;5417713;32;35418;-69
2022/10/10 05:19:35;;;;;;;;;;;;;;;12.61;56.59;101340.28;5393173;32;34351;-71
2022/10/10 05:22:37;;;;;;;;;;;;;;;12.99;55.02;101339.03;5410125;32;34312;-76
2022/10/10 05:25:41;;;;;;;;;;;;;;;11.46;59.46;101332.31;5392194;32;34798;-77
2022/10/10 05:28:43;;;;;;;;;;;;;;;12.08;57.84;101345.47;5417631;32;44842;-76
2022/10/10 05:31:45;;;;;;;;;;;;;;;11.60;59.31;101349.47;5387399;32;35564;-76
2022/10/10 05:34:47;;;;;;;;;;;;;;;12.09;58.16;101348.06;5407636;32;35411;-74
2022/10/10 05:37:49;;;;;;;;;;;;;;;12.54;57.09;101347.53;5416527;32;34306;-78
2022/10/10 05:40:53;;;;;;;;;;;;;;;12.25;58.58;101356.38;5396115;32;34465;-74
2022/10/10 05:43:54;;;;;;;;;;;;;;;12.82;56.77;101349.31;5392632;32;33756;-74
2022/10/10 05:46:57;;;;;;;;;;;;;;;13.10;55.98;101341.31;5369306;32;33243;-72
2022/10/10 05:49:58;;;;;;;;;;;;;;;13.69;54.22;101344.47;5414936;32;35944;-69
2022/10/10 05:53:01;;;;;;;;;;;;;;;13.83;53.94;101350.12;5404858;32;36073;-75
2022/10/10 05:56:03;;;;;;;;;;;;;;;14.24;52.63;101346.84;5410653;32;34294;-69
2022/10/10 05:59:04;;;;;;;;;;;;;;;16.05;48.13;101345.31;5414891;32;37020;-73
2022/10/10 06:02:06;;;;;;;;;;;;;;;16.55;46.67;101345.56;5399729;32;36647;-75
2022/10/10 06:05:08;;;;;;;;;;;;;;;16.07;46.73;101348.75;5419491;32;35714;-71
2022/10/10 06:08:10;;;;;;;;;;;;;;;17.35;44.01;101346.88;5399391;32;44737;-76
2022/10/10 06:11:14;;;;;;;;;;;;;;;18.62;41.41;101344.31;5417014;32;34300;-76
2022/10/10 06:14:16;;;;;;;;;;;;;;;16.90;44.50;101354.44;5404821;32;34417;-77
2022/10/10 06:17:18;;;;;;;;;;;;;;;17.30;43.91;101352.41;5409886;32;35721;-70
2022/10/10 06:20:20;;;;;;;;;;;;;;;17.83;41.63;101346.94;5404683;32;34417;-73
2022/10/10 06:23:22;;;;;;;;;;;;;;;17.94;41.39;101348.16;5400933;32;35416;-75
2022/10/10 06:26:24;;;;;;;;;;;;;;;17.66;41.63;101343.47;5405828;32;34242;-77
2022/10/10 06:29:26;;;;;;;;;;;;;;;16.47;44.03;101340.59;5387662;32;34291;-72
2022/10/10 06:32:28;;;;;;;;;;;;;;;16.38;44.20;101340.19;5418163;32;34300;-73
2022/10/10 06:35:30;;;;;;;;;;;;;;;17.12;42.27;101343.59;5404260;32;35888;-78
2022/10/10 06:38:36;;;;;;;;;;;;;;;17.82;40.83;101329.28;5382091;32;34187;-73
2022/10/10 06:41:38;;;;;;;;;;;;;;;19.34;37.57;101333.91;5421592;32;34231;-72
2022/10/10 06:44:43;;;;;;;;;;;;;;;17.74;40.43;101349.25;5396800;32;44425;-78
2022/10/10 06:47:45;;;;;;;;;;;;;;;17.59;41.17;101342.94;5407616;32;32524;-73
2022/10/10 06:51:00;;;;;;;;;;;;;;;18.37;39.07;101331.53;5385330;32;35815;-76
2022/10/10 06:54:02;;;;;;;;;;;;;;;18.53;38.38;101338.63;5413609;32;35798;-87
2022/10/10 06:57:04;;;;;;;;;;;;;;;18.25;39.19;101345.53;5406124;32;34849;-76
2022/10/10 07:00:06;;;;;;;;;;;;;;;18.00;39.34;101350.50;5403085;32;37241;-75
2022/10/10 07:03:09;;;;;;;;;;;;;;;19.02;37.43;101342.00;5416960;32;35497;-74
2022/10/10 07:06:11;;;;;;;;;;;;;;;18.54;38.01;101330.56;5383891;32;46066;-71
2022/10/10 07:09:13;;;;;;;;;;;;;;;18.91;37.71;101339.97;5407094;32;36008;-76
2022/10/10 07:12:16;;;;;;;;;;;;;;;20.67;34.38;101336.16;5407977;32;36402;-73
2022/10/10 07:15:17;;;;;;;;;;;;;;;19.52;35.67;101326.59;5415516;32;35903;-80
2022/10/10 07:18:20;;;;;;;;;;;;;;;19.53;35.20;101338.97;5413178;32;34417;-85
2022/10/10 07:21:22;;;;;;;;;;;;;;;20.31;34.85;101326.06;5406861;32;33454;-85
2022/10/10 07:24:24;;;;;;;;;;;;;;;21.22;32.64;101327.94;5408600;32;35330;-86
2022/10/10 07:27:26;;;;;;;;;;;;;;;21.03;33.55;101325.66;5406405;32;34708;-85
2022/10/10 07:30:28;;;;;;;;;;;;;;;19.77;34.60;101332.13;5418201;32;35402;-80
2022/10/10 07:33:31;;;;;;;;;;;;;;;18.76;37.25;101335.56;5408612;32;35376;-88
2022/10/10 07:36:33;;;;;;;;;;;;;;;20.96;33.27;101335.06;5399161;32;32861;-77
2022/10/10 07:39:35;;;;;;;;;;;;;;;20.02;34.25;101334.09;5414340;32;33923;-78
2022/10/10 07:42:37;;;;;;;;;;;;;;;19.09;35.87;101338.03;5382229;32;34422;-74
2022/10/10 07:45:38;;;;;;;;;;;;;;;17.31;39.15;101347.00;5391827;32;34236;-76
2022/10/10 07:48:40;;;;;;;;;;;;;;;16.55;41.64;101342.91;5411472;32;44578;-83
2022/10/10 07:51:42;;;;;;;;;;;;;;;15.69;43.31;101348.69;5423113;32;35053;-81
2022/10/10 07:54:44;;;;;;;;;;;;;;;15.96;42.39;101334.19;5421028;32;34445;-77
2022/10/10 07:57:47;;;;;;;;;;;;;;;15.10;44.67;101346.84;5410168;32;35767;-72
2022/10/10 08:01:00;;;;;;;;;;;;;;;15.34;44.23;101343.16;5417722;32;34251;-81
2022/10/10 08:04:02;;;;;;;;;;;;;;;14.82;45.87;101344.53;5411250;32;34779;-76
2022/10/10 08:07:04;;;;;;;;;;;;;;;16.69;41.90;101337.78;5409251;32;34207;-77
2022/10/10 08:10:07;;;;;;;;;;;;;;;15.47;44.25;101346.13;5395297;32;35437;-77
2022/10/10 08:13:09;;;;;;;;;;;;;;;16.18;39.57;101341.16;5407192;32;34848;-70
2022/10/10 08:16:11;;;;;;;;;;;;;;;15.56;40.81;101344.84;5392285;32;44617;-85
2022/10/10 08:19:12;;;;;;;;;;;;;;;15.64;40.78;101340.94;5415110;32;34274;-77
2022/10/10 08:22:19;;;;;;;;;;;;;;;16.13;40.13;101338.72;5422463;32;35406;-78
2022/10/10 08:25:21;;;;;;;;;;;;;;;16.88;38.09;101327.12;5397713;32;35008;-73
2022/10/10 08:28:23;;;;;;;;;;;;;;;16.16;39.71;101330.59;5425632;32;34589;-74
2022/10/10 08:31:25;;;;;;;;;;;;;;;16.23;39.04;101320.59;5412548;32;34196;-90
2022/10/10 08:34:27;;;;;;;;;;;;;;;16.49;39.09;101321.97;5412619;32;34564;-80
2022/10/10 08:37:29;;;;;;;;;;;;;;;16.84;37.54;101319.38;5418056;32;35475;-74
2022/10/10 08:40:42;;;;;;;;;;;;;;;15.69;39.91;101315.09;5415713;32;34411;-76
2022/10/10 08:43:46;;;;;;;;;;;;;;;16.48;38.71;101320.22;5405424;32;42991;-80
2022/10/10 08:46:48;;;;;;;;;;;;;;;16.78;38.03;101313.44;5369299;32;35541;-78
2022/10/10 08:49:50;;;;;;;;;;;;;;;16.60;37.90;101311.66;5422984;32;34329;-82
2022/10/10 08:52:56;;;;;;;;;;;;;;;16.84;37.70;101306.09;5411666;32;34396;-81
2022/10/10 08:55:57;;;;;;;;;;;;;;;16.99;37.42;101303.53;5409950;32;34314;-71
2022/10/10 08:59:02;;;;;;;;;;;;;;;16.32;39.09;101303.34;5417707;32;35495;-71
2022/10/10 09:02:30;;;;;;;;;;;;;;;16.23;39.41;101307.31;5392992;32;34123;-84
2022/10/10 09:05:53;;;;;;;;;;;;;;;16.17;39.94;101303.16;5407591;32;35931;-80
2022/10/10 09:09:10;;;;;;;;;;;;;;;17.01;37.96;101296.34;5415236;32;34438;-83
2022/10/10 09:12:15;;;;;;;;;;;;;;;16.29;38.89;101280.47;5412550;32;44578;-72
2022/10/10 09:15:25;;;;;;;;;;;;;;;17.33;37.79;101286.69;5371102;32;1126600;-74
2022/10/10 09:18:51;;;;;;;;;;;;;;;17.91;36.21;101284.53;5392975;32;34320;-71
2022/10/10 09:21:54;;;;;;;;;;;;;;;16.53;38.24;101283.72;5419635;32;35445;-68
2022/10/10 09:25:02;;;;;;;;;;;;;;;17.58;36.41;101278.28;5409352;32;34675;-70
2022/10/10 09:28:11;;;;;;;;;;;;;;;17.58;36.16;101277.37;5396744;32;34558;-78
2022/10/10 09:31:23;;;;;;;;;;;;;;;17.27;37.16;101284.37;5411183;32;44389;-73
2022/10/10 09:34:25;;;;;;;;;;;;;;;18.06;35.79;101265.03;5408117;32;34518;-76
2022/10/10 09:37:37;;;;;;;;;;;;;;;17.11;37.32;101272.81;5425436;32;32938;-85
2022/10/10 09:40:53;;;;;;;;;;;;;;;17.33;37.30;101276.06;5398646;32;44637;-78
2022/10/10 09:43:56;;;;;;;;;;;;;;;17.52;36.78;101277.75;5402724;32;35336;-74
2022/10/10 09:46:59;;;;;;;;;;;;;;;19.02;33.73;101271.91;5387245;32;34152;-79
2022/10/10 09:50:01;;;;;;;;;;;;;;;19.35;32.92;101267.16;5399856;32;34632;-76
2022/10/10 09:53:09;;;;;;;;;;;;;;;21.17;30.42;101252.53;5415170;32;35111;-77
2022/10/10 09:56:15;;;;;;;;;;;;;;;21.89;29.42;101250.09;5399993;32;44654;-75
2022/10/10 09:59:37;;;;;;;;;;;;;;;25.99;24.04;101235.50;5420986;32;34388;-77
2022/10/10 10:02:39;;;;;;;;;;;;;;;27.04;21.75;101249.09;5414074;32;35912;-75
2022/10/10 10:05:42;;;;;;;;;;;;;;;24.71;24.30;101242.22;5395575;32;44490;-79
2022/10/10 10:08:45;;;;;;;;;;;;;;;25.16;23.71;101245.50;5416985;32;34452;-91
2022/10/10 10:11:54;;;;;;;;;;;;;;;27.25;20.93;101233.63;5417020;32;35134;-81
2022/10/10 10:14:57;;;;;;;;;;;;;;;26.24;22.90;101234.97;5408999;32;34293;-81
2022/10/10 10:18:09;;;;;;;;;;;;;;;25.56;22.83;101239.31;5398736;32;35368;-80
2022/10/10 10:21:12;;;;;;;;;;;;;;;24.57;23.78;101238.03;5409794;32;44602;-81
2022/10/10 10:24:20;;;;;;;;;;;;;;;24.09;25.08;101241.13;5422021;32;34314;-80
2022/10/10 10:27:23;;;;;;;;;;;;;;;24.49;24.21;101222.56;5385703;32;34330;-79
2022/10/10 10:30:25;;;;;;;;;;;;;;;22.49;26.86;101232.34;5403512;32;34860;-81
2022/10/10 10:33:33;;;;;;;;;;;;;;;23.28;26.27;101226.19;5405667;32;35442;-76
2022/10/10 10:36:47;;;;;;;;;;;;;;;24.53;24.90;101218.59;5413639;32;34264;-74
2022/10/10 10:39:58;;;;;;;;;;;;;;;24.20;24.86;101213.37;5416658;32;47047;-78
2022/10/10 10:43:03;;;;;;;;;;;;;;;22.52;27.09;101213.34;5399261;32;34156;-82
2022/10/10 10:46:09;;;;;;;;;;;;;;;22.46;27.14;101214.66;5403377;32;34632;-83
2022/10/10 10:49:15;;;;;;;;;;;;;;;21.36;28.42;101212.03;5396148;32;44603;-78
2022/10/10 10:52:20;;;;;;;;;;;;;;;21.42;28.89;101200.06;5394579;32;35315;-80
2022/10/10 10:55:36;;;;;;;;;;;;;;;20.94;29.25;101200.72;5417259;32;34202;-74
2022/10/10 10:58:40;;;;;;;;;;;;;;;20.58;30.85;101203.25;5399233;32;45248;-76
2022/10/10 11:02:10;;;;;;;;;;;;;;;19.68;31.33;101202.03;5423990;32;34572;-71
2022/10/10 11:05:15;;;;;;;;;;;;;;;20.47;31.37;101196.78;5394136;32;44697;-71
2022/10/10 11:08:52;;;;;;;;;;;;;;;19.53;32.43;101197.66;5417691;32;33930;-81
2022/10/10 11:11:58;;;;;;;;;;;;;;;19.36;32.72;101191.56;5419518;32;35868;-77
2022/10/10 11:15:08;;;;;;;;;;;;;;;19.85;31.83;101182.28;5404212;32;34008;-74
2022/10/10 11:18:17;;;;;;;;;;;;;;;21.44;27.77;101163.34;5407863;32;44415;-73
2022/10/10 11:21:22;;;;;;;;;;;;;;;20.92;28.75;101170.56;5394860;32;34376;-78
2022/10/10 11:24:43;;;;;;;;;;;;;;;20.88;29.99;101182.44;5414485;32;34885;-79
2022/10/10 11:27:57;;;;;;;;;;;;;;;22.04;27.51;101170.53;5421111;32;44623;-78
2022/10/10 11:31:00;;;;;;;;;;;;;;;22.28;27.09;101168.69;5413790;32;35900;-71
2022/10/10 11:34:06;;;;;;;;;;;;;;;20.54;29.41;101159.84;5410041;32;34257;-82
2022/10/10 11:37:12;;;;;;;;;;;;;;;20.32;28.69;101162.25;5409979;32;44604;-77
2022/10/10 11:40:47;;;;;;;;;;;;;;;20.43;29.32;101155.22;5421731;32;34347;-73
2022/10/10 11:43:51;;;;;;;;;;;;;;;21.80;26.72;101146.44;5383576;32;44647;-74
2022/10/10 11:46:58;;;;;;;;;;;;;;;21.88;26.41;101144.03;5392006;32;33755;-75
2022/10/10 11:50:29;;;;;;;;;;;;;;;21.86;25.75;101136.13;5411355;32;34157;-74
2022/10/10 11:53:36;;;;;;;;;;;;;;;21.83;25.90;101147.06;5391238;32;35563;-78
2022/10/10 11:56:39;;;;;;;;;;;;;;;21.12;27.07;101144.25;5408007;32;35070;-81
2022/10/10 11:59:59;;;;;;;;;;;;;;;21.29;27.24;101133.22;5411904;32;45688;-71
2022/10/10 12:03:00;;;;;;;;;;;;;;;19.82;29.49;101143.31;5410413;32;35016;-83
2022/10/10 12:06:22;;;;;;;;;;;;;;;20.35;28.56;101133.56;5408068;32;34196;-77
2022/10/10 12:09:26;;;;;;;;;;;;;;;20.70;27.66;101117.78;5409523;32;38945;-85
2022/10/10 12:12:36;;;;;;;;;;;;;;;20.38;28.29;101117.31;5405413;32;36070;-88
2022/10/10 12:15:38;;;;;;;;;;;;;;;20.61;28.54;101115.75;5421068;32;33069;-76
2022/10/10 12:18:50;;;;;;;;;;;;;;;19.95;29.59;101112.19;5411765;32;44495;-82
2022/10/10 12:21:53;;;;;;;;;;;;;;;21.12;27.76;101101.47;5421995;32;34412;-79
2022/10/10 12:25:06;;;;;;;;;;;;;;;20.77;27.83;101103.03;5406854;32;34214;-75
2022/10/10 12:28:13;;;;;;;;;;;;;;;21.71;26.38;101098.97;5409632;32;44992;-74
2022/10/10 12:31:15;;;;;;;;;;;;;;;21.59;27.26;101100.75;5417349;32;34808;-74
2022/10/10 12:34:38;;;;;;;;;;;;;;;22.08;27.00;101091.69;5413641;32;37280;-78
2022/10/10 12:37:41;;;;;;;;;;;;;;;21.12;28.33;101091.63;5411256;32;45198;-80
2022/10/10 12:41:03;;;;;;;;;;;;;;;21.05;28.53;101093.03;5411807;32;35514;-84
2022/10/10 12:44:24;;;;;;;;;;;;;;;22.31;27.00;101092.66;5407361;32;34281;-86
2022/10/10 12:47:29;;;;;;;;;;;;;;;22.60;25.86;101082.31;5414631;32;34298;-86
2022/10/10 12:50:57;;;;;;;;;;;;;;;21.45;27.34;101087.53;5398671;32;33484;-72
2022/10/10 12:53:59;;;;;;;;;;;;;;;22.96;25.18;101073.25;5409210;32;34357;-70
2022/10/10 12:57:06;;;;;;;;;;;;;;;22.26;25.97;101086.78;5394192;32;35355;-78
2022/10/10 13:00:12;;;;;;;;;;;;;;;23.51;24.77;101083.03;5399076;32;34224;-79
2022/10/10 13:03:17;;;;;;;;;;;;;;;24.80;22.80;101074.78;5422251;32;44453;-77
2022/10/10 13:06:19;;;;;;;;;;;;;;;25.74;21.43;101072.62;5407141;32;34342;-72
2022/10/10 13:09:23;;;;;;;;;;;;;;;24.29;22.53;101081.84;5424206;32;34319;-71
2022/10/10 13:12:26;;;;;;;;;;;;;;;25.12;21.60;101066.59;5413735;32;34205;-73
2022/10/10 13:15:28;;;;;;;;;;;;;;;24.47;21.39;101068.69;5398796;32;34400;-77
2022/10/10 13:18:40;;;;;;;;;;;;;;;26.86;19.85;101057.53;5392734;32;35402;-77
2022/10/10 13:21:42;;;;;;;;;;;;;;;28.08;18.28;101050.75;5386402;32;44401;-76
2022/10/10 13:24:45;;;;;;;;;;;;;;;26.25;20.50;101042.66;5419903;32;34426;-85
2022/10/10 13:27:47;;;;;;;;;;;;;;;25.17;21.50;101050.00;5392894;32;38012;-74
2022/10/10 13:30:49;;;;;;;;;;;;;;;23.35;22.96;101050.37;5419549;32;34212;-75
2022/10/10 13:34:01;;;;;;;;;;;;;;;23.35;24.27;101047.69;5390694;32;37500;-75
2022/10/10 13:37:04;;;;;;;;;;;;;;;23.02;24.79;101047.78;5399643;32;34355;-75
2022/10/10 13:40:11;;;;;;;;;;;;;;;22.62;24.65;101049.09;5395142;32;34968;-75
2022/10/10 13:43:16;;;;;;;;;;;;;;;22.59;25.12;101046.66;5396478;32;45261;-74
2022/10/10 13:46:22;;;;;;;;;;;;;;;22.46;23.95;101047.75;5385376;32;35029;-75
2022/10/10 13:49:25;;;;;;;;;;;;;;;22.20;24.75;101042.59;5409991;32;34515;-74
2022/10/10 13:52:28;;;;;;;;;;;;;;;22.96;22.73;101041.91;5419266;32;35583;-74
2022/10/10 13:55:33;;;;;;;;;;;;;;;22.25;23.78;101023.50;5412864;32;34744;-76
2022/10/10 13:58:47;;;;;;;;;;;;;;;22.33;23.46;101031.78;5395583;32;35608;-75
2022/10/10 14:01:49;;;;;;;;;;;;;;;22.89;22.62;101029.16;5422519;32;44632;-72
2022/10/10 14:04:52;;;;;;;;;;;;;;;22.74;22.90;101025.84;5397112;32;34548;-76
2022/10/10 14:07:54;;;;;;;;;;;;;;;22.71;23.29;101023.41;5405815;32;34508;-82
2022/10/10 14:10:57;;;;;;;;;;;;;;;20.79;26.69;101036.13;5395091;32;34295;-73
2022/10/10 14:14:03;;;;;;;;;;;;;;;21.00;26.11;101034.59;5403371;32;35571;-76
2022/10/10 14:17:07;;;;;;;;;;;;;;;20.73;27.61;101033.91;5402905;32;34431;-76
2022/10/10 14:20:11;;;;;;;;;;;;;;;21.15;25.98;101031.78;5405012;32;34438;-77
2022/10/10 14:23:14;;;;;;;;;;;;;;;21.63;25.20;101028.16;5418518;32;47558;-83
2022/10/10 14:26:17;;;;;;;;;;;;;;;21.08;25.98;101013.50;5398105;32;35109;-81
2022/10/10 14:29:19;;;;;;;;;;;;;;;21.02;26.87;101011.28;5422591;32;35302;-82
2022/10/10 14:32:21;;;;;;;;;;;;;;;20.93;27.30;101016.44;5380556;32;35376;-82
2022/10/10 14:35:23;;;;;;;;;;;;;;;20.65;28.20;101009.56;5399103;32;35106;-82
2022/10/10 14:38:25;;;;;;;;;;;;;;;20.44;28.68;101007.41;5418007;32;34532;-84
2022/10/10 14:41:28;;;;;;;;;;;;;;;21.04;27.22;101000.47;5409572;32;34591;-80
2022/10/10 14:44:30;;;;;;;;;;;;;;;20.28;28.47;101014.78;5383799;32;35654;-78
2022/10/10 14:47:32;;;;;;;;;;;;;;;20.61;27.62;101002.72;5400458;32;34231;-78
2022/10/10 14:50:35;;;;;;;;;;;;;;;21.38;26.50;101006.87;5408480;32;35859;-80
2022/10/10 14:53:38;;;;;;;;;;;;;;;20.34;28.10;101009.00;5396737;32;34195;-80
2022/10/10 14:56:41;;;;;;;;;;;;;;;21.23;26.61;101002.66;5413985;32;44835;-79
2022/10/10 15:00:04;;;;;;;;;;;;;;;20.84;27.03;101007.28;5409749;32;34100;-80
2022/10/10 15:03:06;;;;;;;;;;;;;;;21.33;26.54;101004.56;5409924;32;34516;-80
2022/10/10 15:06:09;;;;;;;;;;;;;;;21.22;26.77;100999.13;5409285;32;36144;-80
2022/10/10 15:09:12;;;;;;;;;;;;;;;20.29;28.65;101005.84;5399152;32;46377;-77
2022/10/10 15:12:39;;;;;;;;;;;;;;;20.49;28.48;100997.31;5397545;32;34482;-74
2022/10/10 15:15:41;;;;;;;;;;;;;;;20.86;28.23;101001.81;5418769;32;44712;-69
2022/10/10 15:18:43;;;;;;;;;;;;;;;20.49;28.83;100983.97;5393572;32;35703;-71
2022/10/10 15:22:00;;;;;;;;;;;;;;;20.58;29.24;100992.28;5412605;32;35387;-70
2022/10/10 15:25:02;;;;;;;;;;;;;;;20.79;29.01;100991.56;5415125;32;35491;-70
2022/10/10 15:28:04;;;;;;;;;;;;;;;21.10;28.50;100994.69;5428131;32;33939;-87
2022/10/10 15:31:06;;;;;;;;;;;;;;;20.21;30.60;100994.81;5423675;32;36541;-74
2022/10/10 15:34:08;;;;;;;;;;;;;;;20.23;30.73;100996.44;5407539;32;35419;-76
2022/10/10 15:37:11;;;;;;;;;;;;;;;20.67;29.69;100997.78;5404238;32;45384;-80
2022/10/10 15:40:14;;;;;;;;;;;;;;;20.25;30.60;100999.00;5412585;32;34228;-80
2022/10/10 15:43:16;;;;;;;;;;;;;;;20.53;30.13;100996.09;5413741;32;34336;-72
2022/10/10 15:46:18;;;;;;;;;;;;;;;20.79;30.02;100993.37;5395269;32;34212;-71
2022/10/10 15:49:21;;;;;;;;;;;;;;;20.69;30.14;100989.69;5426095;32;35820;-75